Time;durP1;ratioP1;P1;durP2;ratioP2;P2;SDS_P1;SDS_P2;PMS_P1;PMS_P2;Temp;Humidity;BMP_temperature;BMP_pressure;BME280_temperature;BME280_humidity;BME280_pressure;Samples;Min_cycle;Max_cycle;Signal;HPM_P1;HPM_P2
2024/04/03 00:00:44;;;;;;;11.90;3.22;;;10.70;99.90;;;;;;5053666;28;20089;-38
2024/04/03 00:03:10;;;;;;;12.15;3.47;;;10.70;99.90;;;;;;5053293;28;20485;-38
2024/04/03 00:05:36;;;;;;;6.95;3.40;;;10.70;99.90;;;;;;5053158;28;20112;-38
2024/04/03 00:08:02;;;;;;;8.15;3.60;;;10.60;99.90;;;;;;5053160;28;20036;-38
2024/04/03 00:10:27;;;;;;;10.98;3.90;;;10.70;99.90;;;;;;5052898;28;20115;-38
2024/04/03 00:12:53;;;;;;;15.05;4.22;;;10.60;99.90;;;;;;5053064;28;20025;-38
2024/04/03 00:15:18;;;;;;;13.05;4.05;;;10.70;99.90;;;;;;5052002;28;20029;-39
2024/04/03 00:17:44;;;;;;;9.20;3.70;;;10.70;99.90;;;;;;5052821;28;20036;-42
2024/04/03 00:20:10;;;;;;;8.98;4.05;;;10.70;99.90;;;;;;5033226;28;20029;-53
2024/04/03 00:22:36;;;;;;;9.85;4.07;;;10.80;99.90;;;;;;5045658;28;20490;-52
2024/04/03 00:25:02;;;;;;;8.10;4.88;;;10.70;99.90;;;;;;5052897;28;20035;-38
2024/04/03 00:27:28;;;;;;;11.98;4.03;;;10.70;99.90;;;;;;5053158;28;20033;-38
2024/04/03 00:29:54;;;;;;;10.20;4.03;;;10.70;99.90;;;;;;5052751;28;20033;-37
2024/04/03 00:32:20;;;;;;;10.32;4.50;;;10.80;99.90;;;;;;5038546;28;20375;-37
2024/04/03 00:34:45;;;;;;;7.47;4.07;;;10.80;99.90;;;;;;5051863;28;20036;-40
2024/04/03 00:37:11;;;;;;;9.77;4.05;;;10.80;99.90;;;;;;5044999;28;20048;-39
2024/04/03 00:39:37;;;;;;;9.32;4.40;;;10.80;99.90;;;;;;5052401;28;20108;-42
2024/04/03 00:42:03;;;;;;;9.27;4.32;;;10.80;99.90;;;;;;5052853;28;20338;-37
2024/04/03 00:44:28;;;;;;;4.90;3.40;;;10.80;99.90;;;;;;5052447;28;20546;-41
2024/04/03 00:46:54;;;;;;;8.98;3.92;;;10.80;99.90;;;;;;5052491;28;20032;-37
2024/04/03 00:49:21;;;;;;;13.35;4.05;;;10.80;99.90;;;;;;5052383;28;20029;-37
2024/04/03 00:51:50;;;;;;;8.40;4.05;;;10.80;99.90;;;;;;5052489;28;20481;-37
2024/04/03 00:54:21;;;;;;;12.65;4.40;;;10.80;99.90;;;;;;5052485;28;20533;-38
2024/04/03 00:56:47;;;;;;;7.88;4.68;;;10.70;99.90;;;;;;5052250;28;20386;-39
2024/04/03 00:59:14;;;;;;;7.88;3.90;;;10.80;99.90;;;;;;5052340;28;20499;-39
2024/04/03 01:01:40;;;;;;;8.63;4.43;;;10.70;99.90;;;;;;5050834;28;20041;-39
2024/04/03 01:04:06;;;;;;;11.43;4.63;;;10.70;99.90;;;;;;5051524;28;20541;-40
2024/04/03 01:06:31;;;;;;;12.43;5.55;;;10.70;99.90;;;;;;5051156;28;20048;-39
2024/04/03 01:08:57;;;;;;;7.47;5.13;;;10.80;99.90;;;;;;5052125;28;20505;-40
2024/04/03 01:11:23;;;;;;;14.80;5.53;;;10.80;99.90;;;;;;5052351;28;20449;-40
2024/04/03 01:13:49;;;;;;;8.50;5.00;;;10.70;99.90;;;;;;5052003;28;20181;-39
2024/04/03 01:16:15;;;;;;;8.98;5.25;;;10.70;99.90;;;;;;5052227;28;20470;-41
2024/04/03 01:18:40;;;;;;;8.50;6.05;;;10.80;99.90;;;;;;5050853;28;20035;-38
2024/04/03 01:21:06;;;;;;;12.48;5.95;;;10.80;99.90;;;;;;5051572;28;20108;-38
2024/04/03 01:23:32;;;;;;;12.43;5.90;;;10.90;99.90;;;;;;5037622;28;20527;-39
2024/04/03 01:25:57;;;;;;;10.23;5.45;;;10.80;99.90;;;;;;5051782;28;20082;-38
2024/04/03 01:28:23;;;;;;;11.05;6.07;;;10.90;99.90;;;;;;5056237;28;20036;-39
2024/04/03 01:30:49;;;;;;;14.98;4.88;;;10.90;99.90;;;;;;5055461;28;20079;-54
2024/04/03 01:33:15;;;;;;;11.00;5.38;;;10.90;99.90;;;;;;5056097;28;20500;-54
2024/04/03 01:35:41;;;;;;;11.98;5.53;;;10.90;99.90;;;;;;5055311;28;20033;-54
2024/04/03 01:38:06;;;;;;;21.55;6.20;;;10.90;99.90;;;;;;5054382;28;20099;-55
2024/04/03 01:40:32;;;;;;;11.43;6.78;;;11.00;99.90;;;;;;5036014;28;20036;-50
2024/04/03 01:42:58;;;;;;;11.52;6.57;;;10.90;99.90;;;;;;5036103;28;20393;-55
2024/04/03 01:45:23;;;;;;;14.57;6.90;;;11.00;99.90;;;;;;5043313;28;20029;-54
2024/04/03 01:47:49;;;;;;;15.57;6.85;;;11.00;99.90;;;;;;5054737;28;20033;-55
2024/04/03 01:50:35;;;;;;;17.05;6.97;;;11.00;99.90;;;;;;5053462;28;20534;-41
2024/04/03 01:53:00;;;;;;;10.27;6.93;;;11.00;99.90;;;;;;5055863;28;20040;-42
2024/04/03 01:55:26;;;;;;;14.30;6.25;;;11.10;99.90;;;;;;5055672;28;20465;-39
2024/04/03 01:57:52;;;;;;;10.07;6.15;;;11.00;99.90;;;;;;5055967;28;20473;-54
2024/04/03 02:00:17;;;;;;;9.60;6.50;;;11.00;99.90;;;;;;5055629;28;20023;-52
2024/04/03 02:02:43;;;;;;;12.57;6.63;;;11.00;99.90;;;;;;5055275;28;20040;-53
2024/04/03 02:05:08;;;;;;;10.27;5.90;;;10.90;99.90;;;;;;5053889;28;20515;-53
2024/04/03 02:07:34;;;;;;;14.85;5.95;;;10.90;99.90;;;;;;5053496;28;20048;-53
2024/04/03 02:10:00;;;;;;;13.23;4.97;;;10.90;99.90;;;;;;5055721;28;20079;-53
2024/04/03 02:12:25;;;;;;;8.80;4.70;;;10.80;99.90;;;;;;5044961;28;20425;-39
2024/04/03 02:14:51;;;;;;;7.25;4.50;;;10.80;99.90;;;;;;5042267;28;20445;-40
2024/04/03 02:17:16;;;;;;;8.48;3.28;;;10.80;99.90;;;;;;5055305;28;20070;-41
2024/04/03 02:19:42;;;;;;;5.75;3.90;;;10.80;99.90;;;;;;5054386;28;20021;-39
2024/04/03 02:22:08;;;;;;;5.28;3.20;;;10.80;99.90;;;;;;5054715;28;20029;-40
2024/04/03 02:24:33;;;;;;;6.93;3.47;;;10.80;99.90;;;;;;5055172;28;20029;-41
2024/04/03 02:26:59;;;;;;;5.97;2.92;;;10.80;99.90;;;;;;5055179;28;20405;-41
2024/04/03 02:29:24;;;;;;;3.90;2.90;;;10.80;99.90;;;;;;5053465;28;20500;-40
2024/04/03 02:31:50;;;;;;;4.90;2.50;;;10.80;99.90;;;;;;5055000;28;20040;-39
2024/04/03 02:34:17;;;;;;;5.10;2.67;;;10.80;99.90;;;;;;5052568;28;20021;-39
2024/04/03 02:36:43;;;;;;;7.83;3.10;;;10.80;99.90;;;;;;5054443;28;20568;-38
2024/04/03 02:39:08;;;;;;;5.10;2.60;;;10.90;99.90;;;;;;5053237;28;20299;-41
2024/04/03 02:41:34;;;;;;;7.13;2.53;;;10.90;99.90;;;;;;5054874;28;20079;-41
2024/04/03 02:44:00;;;;;;;3.72;2.17;;;10.80;99.90;;;;;;5054874;28;20025;-39
2024/04/03 02:46:25;;;;;;;2.70;2.38;;;10.80;99.90;;;;;;5054755;28;20112;-40
2024/04/03 02:48:51;;;;;;;6.13;2.63;;;10.80;99.90;;;;;;5053192;28;20026;-45
2024/04/03 02:51:17;;;;;;;11.70;2.47;;;10.80;99.90;;;;;;5034917;28;20030;-42
2024/04/03 02:53:42;;;;;;;6.60;2.17;;;10.80;99.90;;;;;;5034816;28;20017;-39
2024/04/03 02:56:10;;;;;;;5.35;1.95;;;10.80;99.90;;;;;;5034651;28;20029;-40
2024/04/03 02:58:36;;;;;;;6.32;1.92;;;10.80;99.90;;;;;;5034705;28;20029;-44
2024/04/03 03:01:04;;;;;;;3.45;1.92;;;10.80;99.90;;;;;;5035017;28;20029;-52
2024/04/03 03:03:30;;;;;;;6.07;1.70;;;10.80;99.90;;;;;;5034550;28;20039;-54
2024/04/03 03:06:00;;;;;;;8.73;1.40;;;10.70;99.90;;;;;;5048967;28;20059;-55
2024/04/03 03:08:28;;;;;;;5.32;1.70;;;10.70;99.90;;;;;;5054382;28;20440;-53
2024/04/03 03:10:53;;;;;;;;;;;10.80;99.90;;;;;;5054348;28;20032;-53
2024/04/03 03:13:19;;;;;;;4.05;1.45;;;10.80;99.90;;;;;;5054558;28;19913;-52
2024/04/03 03:15:58;;;;;;;5.53;1.50;;;10.70;99.90;;;;;;5040422;28;20500;-46
2024/04/03 03:18:28;;;;;;;6.78;1.90;;;10.70;99.90;;;;;;5034623;28;20075;-52
2024/04/03 03:20:54;;;;;;;6.13;1.73;;;10.70;99.90;;;;;;5052614;28;20033;-52
2024/04/03 03:23:20;;;;;;;4.47;1.83;;;10.60;99.90;;;;;;5053891;28;20107;-54
2024/04/03 03:25:48;;;;;;;13.57;1.92;;;10.60;99.90;;;;;;5040783;28;20034;-50
2024/04/03 03:28:14;;;;;;;2.60;1.33;;;10.60;99.90;;;;;;5035369;28;20083;-49
2024/04/03 03:30:40;;;;;;;8.07;1.92;;;10.60;99.90;;;;;;5054130;28;20512;-52
2024/04/03 03:33:06;;;;;;;3.33;1.30;;;10.60;99.90;;;;;;5053874;28;20021;-37
2024/04/03 03:35:32;;;;;;;6.95;1.38;;;10.60;99.90;;;;;;5040644;28;20029;-40
2024/04/03 03:37:58;;;;;;;3.80;1.90;;;10.60;99.90;;;;;;5034846;28;20497;-41
2024/04/03 03:40:25;;;;;;;7.05;1.48;;;10.60;99.90;;;;;;5054070;28;20017;-41
2024/04/03 03:42:51;;;;;;;3.55;1.75;;;10.50;99.90;;;;;;5054106;28;20389;-41
2024/04/03 03:45:20;;;;;;;4.82;1.42;;;10.60;99.90;;;;;;5053960;28;20018;-39
2024/04/03 03:47:47;;;;;;;3.38;1.48;;;10.50;99.90;;;;;;5053578;28;20057;-43
2024/04/03 03:52:58;;;;;;;4.72;1.15;;;10.50;99.90;;;;;;5053731;28;20067;-42
2024/04/03 03:55:30;;;;;;;3.67;1.30;;;10.50;99.90;;;;;;5053730;28;20397;-39
2024/04/03 03:57:57;;;;;;;5.82;1.50;;;10.50;99.90;;;;;;5050861;28;20366;-39
2024/04/03 04:00:23;;;;;;;4.57;1.03;;;10.50;99.90;;;;;;5033813;28;20168;-37
2024/04/03 04:02:52;;;;;;;2.65;1.48;;;10.50;99.90;;;;;;5033391;28;20017;-37
2024/04/03 04:05:19;;;;;;;6.20;1.50;;;10.60;99.90;;;;;;5051491;28;20362;-37
2024/04/03 04:07:46;;;;;;;7.90;1.37;;;10.60;99.90;;;;;;5035388;28;20017;-37
2024/04/03 04:10:11;;;;;;;5.10;1.08;;;10.60;99.90;;;;;;5051805;28;20259;-37
2024/04/03 04:12:37;;;;;;;7.50;1.42;;;10.60;99.90;;;;;;5046001;28;20483;-36
2024/04/03 04:15:03;;;;;;;3.30;1.55;;;10.60;99.90;;;;;;5034287;28;20479;-37
2024/04/03 04:17:29;;;;;;;3.85;1.17;;;10.60;99.90;;;;;;5033321;28;20025;-37
2024/04/03 04:19:54;;;;;;;4.45;1.50;;;10.60;99.90;;;;;;5044803;28;20086;-36
2024/04/03 04:22:20;;;;;;;1.00;0.80;;;10.60;99.90;;;;;;5053040;28;20462;-38
2024/04/03 04:24:46;;;;;;;2.38;1.25;;;10.60;99.90;;;;;;5052680;28;20432;-52
2024/04/03 04:27:12;;;;;;;6.10;1.98;;;10.60;99.90;;;;;;5052849;28;20036;-50
2024/04/03 04:29:42;;;;;;;3.05;1.63;;;10.60;99.90;;;;;;5052740;28;20537;-47
2024/04/03 04:32:08;;;;;;;2.55;1.02;;;10.60;99.90;;;;;;5052737;28;20375;-50
2024/04/03 04:34:34;;;;;;;6.18;1.55;;;10.60;99.90;;;;;;5051221;28;20105;-52
2024/04/03 04:37:00;;;;;;;5.32;1.60;;;10.60;99.90;;;;;;5052605;28;20029;-59
2024/04/03 04:39:26;;;;;;;2.75;1.63;;;10.60;99.90;;;;;;5052613;28;20481;-54
2024/04/03 04:41:52;;;;;;;3.03;1.45;;;10.60;99.90;;;;;;5052605;28;20108;-52
2024/04/03 04:44:21;;;;;;;3.83;1.38;;;10.60;99.90;;;;;;5051036;28;20497;-51
2024/04/03 04:46:51;;;;;;;6.15;1.40;;;10.70;99.90;;;;;;5052498;28;20397;-50
2024/04/03 04:49:17;;;;;;;10.18;2.80;;;10.70;99.90;;;;;;5050552;28;20029;-53
2024/04/03 04:51:43;;;;;;;2.40;1.63;;;10.70;99.90;;;;;;5052300;28;20033;-52
2024/04/03 04:54:11;;;;;;;5.15;2.17;;;10.70;99.90;;;;;;5052097;28;20029;-47
2024/04/03 04:56:39;;;;;;;4.43;1.30;;;10.70;99.90;;;;;;5051119;28;20029;-54
2024/04/03 04:59:05;;;;;;;7.60;2.10;;;10.70;99.90;;;;;;5052630;28;20513;-51
2024/04/03 05:01:33;;;;;;;3.25;1.77;;;10.60;99.90;;;;;;5051751;28;20061;-52
2024/04/03 05:04:00;;;;;;;3.58;1.73;;;10.70;99.90;;;;;;5045520;28;20103;-48
2024/04/03 05:06:26;;;;;;;9.93;1.95;;;10.60;99.90;;;;;;5039777;28;20064;-54
2024/04/03 05:08:51;;;;;;;6.72;1.63;;;10.60;99.90;;;;;;5052249;28;20462;-49
2024/04/03 05:11:17;;;;;;;3.60;1.35;;;10.60;99.90;;;;;;5052190;28;20473;-52
2024/04/03 05:13:43;;;;;;;3.33;1.90;;;10.60;99.90;;;;;;5048996;28;20509;-51
2024/04/03 05:16:13;;;;;;;3.45;1.70;;;10.60;99.90;;;;;;5049528;28;20485;-51
2024/04/03 05:18:43;;;;;;;4.53;2.53;;;10.60;99.90;;;;;;5033222;28;20445;-37
2024/04/03 05:21:10;;;;;;;4.20;1.88;;;10.60;99.90;;;;;;5052479;28;20444;-51
2024/04/03 05:23:35;;;;;;;6.53;2.65;;;10.60;99.90;;;;;;5049956;28;20073;-52
2024/04/03 05:26:03;;;;;;;2.58;1.70;;;10.60;99.90;;;;;;5032131;28;20065;-52
2024/04/03 05:28:30;;;;;;;;;;;10.60;99.90;;;;;;5032583;28;20478;-52
2024/04/03 05:31:06;;;;;;;7.53;1.90;;;10.60;99.90;;;;;;5032056;28;20428;-55
2024/04/03 05:33:36;;;;;;;3.95;1.70;;;10.60;99.90;;;;;;5032350;28;20104;-49
2024/04/03 05:36:03;;;;;;;6.50;1.83;;;10.60;99.90;;;;;;5049867;28;20382;-52
2024/04/03 05:38:30;;;;;;;8.32;1.70;;;10.60;99.90;;;;;;5051912;28;20500;-49
2024/04/03 05:40:56;;;;;;;3.15;1.45;;;10.60;99.90;;;;;;5051887;28;20036;-52
2024/04/03 05:43:22;;;;;;;3.28;1.55;;;10.70;99.90;;;;;;5050936;28;20025;-56
2024/04/03 05:45:50;;;;;;;5.07;1.45;;;10.60;99.90;;;;;;5051777;28;20029;-51
2024/04/03 05:48:15;;;;;;;6.55;1.58;;;10.60;99.90;;;;;;5050459;28;20033;-50
2024/04/03 05:50:41;;;;;;;2.10;1.73;;;10.60;99.90;;;;;;5038486;28;20441;-50
2024/04/03 05:53:07;;;;;;;3.95;2.35;;;10.60;99.90;;;;;;5031922;28;20025;-52
2024/04/03 05:55:33;;;;;;;4.05;1.85;;;10.60;99.90;;;;;;5031836;28;20462;-53
2024/04/03 05:58:00;;;;;;;10.68;2.03;;;10.60;99.90;;;;;;5031966;28;20095;-49
2024/04/03 06:00:26;;;;;;;7.13;1.87;;;10.70;99.90;;;;;;5030553;28;20104;-52
2024/04/03 06:02:52;;;;;;;3.88;1.73;;;10.70;99.90;;;;;;5032031;28;20063;-56
2024/04/03 06:05:18;;;;;;;6.90;2.53;;;10.70;99.90;;;;;;5039242;28;20029;-52
2024/04/03 06:07:45;;;;;;;6.40;1.67;;;10.70;99.90;;;;;;5051602;28;20446;-55
2024/04/03 06:10:12;;;;;;;2.38;1.55;;;10.80;99.90;;;;;;5039527;28;20107;-53
2024/04/03 06:12:41;;;;;;;4.32;1.60;;;10.80;99.90;;;;;;5033188;28;20014;-53
2024/04/03 06:15:07;;;;;;;8.63;2.13;;;10.90;99.90;;;;;;5037791;28;20025;-54
2024/04/03 06:17:33;;;;;;;8.48;1.90;;;10.80;99.90;;;;;;5035410;28;20021;-52
2024/04/03 06:19:59;;;;;;;7.78;1.65;;;10.90;99.90;;;;;;5044086;28;20029;-52
2024/04/03 06:22:24;;;;;;;7.85;2.67;;;10.90;99.90;;;;;;5053920;28;20090;-51
2024/04/03 06:24:50;;;;;;;5.53;2.03;;;10.90;99.90;;;;;;5051748;28;20520;-53
2024/04/03 06:27:16;;;;;;;6.38;2.00;;;10.90;99.90;;;;;;5055380;28;20035;-52
2024/04/03 06:29:41;;;;;;;1.58;1.40;;;11.00;99.90;;;;;;5054520;28;20025;-52
2024/04/03 06:32:07;;;;;;;11.90;2.50;;;11.00;99.90;;;;;;5054445;28;20025;-39
2024/04/03 06:34:33;;;;;;;4.47;2.42;;;11.00;99.90;;;;;;5054193;28;20035;-40
2024/04/03 06:36:59;;;;;;;4.68;2.05;;;11.00;99.90;;;;;;5054998;28;20032;-38
2024/04/03 06:39:24;;;;;;;4.78;2.00;;;11.10;99.90;;;;;;5048846;28;20375;-39
2024/04/03 06:41:50;;;;;;;5.13;2.25;;;11.10;99.90;;;;;;5034903;28;20039;-40
2024/04/03 06:44:16;;;;;;;4.38;1.50;;;11.10;99.90;;;;;;5043088;28;20032;-40
2024/04/03 06:46:42;;;;;;;5.68;1.40;;;11.20;99.90;;;;;;5045390;28;20029;-37
2024/04/03 06:49:10;;;;;;;6.65;1.75;;;11.20;99.90;;;;;;5053290;28;20025;-38
2024/04/03 06:51:36;;;;;;;11.90;1.98;;;11.30;99.90;;;;;;5052531;28;20029;-40
2024/04/03 06:54:03;;;;;;;3.85;1.90;;;11.40;99.90;;;;;;5041246;28;20501;-42
2024/04/03 06:56:30;;;;;;;8.13;2.25;;;11.40;99.90;;;;;;5034572;28;20029;-38
2024/04/03 06:58:56;;;;;;;9.38;2.40;;;11.50;99.90;;;;;;5034933;28;20025;-40
2024/04/03 07:01:22;;;;;;;6.47;1.88;;;11.60;99.90;;;;;;5038153;28;20086;-40
2024/04/03 07:03:48;;;;;;;8.00;2.08;;;11.60;99.90;;;;;;5051199;28;20029;-37
2024/04/03 07:06:14;;;;;;;5.85;1.42;;;11.70;99.90;;;;;;5054034;28;20047;-38
2024/04/03 07:08:39;;;;;;;3.88;1.60;;;11.70;99.90;;;;;;5054378;28;20037;-40
2024/04/03 07:11:05;;;;;;;5.18;1.95;;;11.70;99.90;;;;;;5053507;28;20389;-37
2024/04/03 07:13:30;;;;;;;9.02;1.90;;;11.70;99.90;;;;;;5053709;28;20018;-40
2024/04/03 07:15:57;;;;;;;8.15;1.60;;;11.60;99.90;;;;;;5041903;28;20117;-38
2024/04/03 07:18:22;;;;;;;4.38;1.50;;;11.60;99.90;;;;;;5034363;28;20025;-37
2024/04/03 07:20:58;;;;;;;2.30;1.40;;;11.50;99.90;;;;;;5041380;28;20025;-38
2024/04/03 07:23:26;;;;;;;5.75;1.63;;;11.50;99.90;;;;;;5051514;28;20485;-37
2024/04/03 07:25:56;;;;;;;3.72;1.75;;;11.40;99.90;;;;;;5034144;28;20478;-39
2024/04/03 07:28:24;;;;;;;11.63;1.90;;;11.40;99.90;;;;;;5034116;28;20481;-40
2024/04/03 07:30:50;;;;;;;2.28;1.48;;;11.30;99.90;;;;;;5042465;28;20024;-41
2024/04/03 07:33:16;;;;;;;2.05;1.27;;;11.20;99.90;;;;;;5053881;28;20029;-37
2024/04/03 07:35:42;;;;;;;2.70;1.10;;;11.20;99.90;;;;;;5053503;28;20374;-38
2024/04/03 07:38:08;;;;;;;6.70;1.40;;;11.10;99.90;;;;;;5053814;28;20025;-39
2024/04/03 07:40:37;;;;;;;3.67;1.35;;;11.10;99.90;;;;;;5053055;28;20024;-39
2024/04/03 07:43:03;;;;;;;2.13;1.40;;;11.20;99.90;;;;;;5036739;28;20025;-36
2024/04/03 07:45:29;;;;;;;4.65;1.55;;;11.30;99.90;;;;;;5035863;28;20086;-40
2024/04/03 07:47:57;;;;;;;9.68;1.38;;;11.20;99.90;;;;;;5052313;28;20021;-37
2024/04/03 07:50:22;;;;;;;2.42;1.20;;;11.30;99.90;;;;;;5051985;28;20390;-38
2024/04/03 07:52:48;;;;;;;3.55;1.67;;;11.30;99.90;;;;;;5053447;28;20028;-38
2024/04/03 07:55:14;;;;;;;3.05;1.50;;;11.30;99.90;;;;;;5051882;28;20031;-37
2024/04/03 07:57:41;;;;;;;5.43;1.52;;;11.30;99.90;;;;;;5033728;28;20389;-37
2024/04/03 08:00:09;;;;;;;6.07;2.22;;;11.30;99.90;;;;;;5036086;28;20033;-38
2024/04/03 08:02:36;;;;;;;;;;;11.20;99.90;;;;;;5053977;28;20037;-37
2024/04/03 08:05:02;;;;;;;3.83;1.80;;;11.30;99.90;;;;;;5067888;28;19923;-38
2024/04/03 08:07:28;;;;;;;4.72;1.63;;;11.30;99.90;;;;;;5052597;28;20033;-52
2024/04/03 08:09:54;;;;;;;2.08;1.38;;;11.30;99.90;;;;;;5052120;28;20408;-52
2024/04/03 08:12:20;;;;;;;1.48;1.38;;;11.30;99.90;;;;;;5033158;28;20032;-53
2024/04/03 08:14:46;;;;;;;2.42;1.80;;;11.30;99.90;;;;;;5031970;28;20496;-48
2024/04/03 08:17:11;;;;;;;6.22;2.08;;;11.30;99.90;;;;;;5032156;28;20045;-52
2024/04/03 08:19:37;;;;;;;2.20;1.25;;;11.30;99.90;;;;;;5033390;28;20055;-52
2024/04/03 08:22:05;;;;;;;4.40;1.85;;;11.30;99.90;;;;;;5033418;28;20027;-55
2024/04/03 08:24:32;;;;;;;1.50;1.40;;;11.30;99.90;;;;;;5032819;28;20490;-52
2024/04/03 08:26:57;;;;;;;6.30;1.33;;;11.40;99.90;;;;;;5031652;28;20394;-52
2024/04/03 08:29:24;;;;;;;2.25;1.48;;;11.40;99.90;;;;;;5043341;28;20040;-52
2024/04/03 08:31:50;;;;;;;2.65;1.27;;;11.40;99.90;;;;;;5052936;28;20036;-53
2024/04/03 08:34:16;;;;;;;1.40;1.30;;;11.40;99.90;;;;;;5053039;28;20474;-52
2024/04/03 08:36:42;;;;;;;3.83;1.65;;;11.40;99.90;;;;;;5050463;28;20469;-53
2024/04/03 08:39:07;;;;;;;2.17;1.70;;;11.40;99.90;;;;;;5051495;28;20100;-51
2024/04/03 08:41:36;;;;;;;2.70;1.80;;;11.40;99.90;;;;;;5051311;28;20036;-52
2024/04/03 08:44:02;;;;;;;4.47;1.92;;;11.40;99.90;;;;;;5045060;28;20390;-53
2024/04/03 08:46:29;;;;;;;2.35;1.70;;;11.50;99.90;;;;;;5039570;28;20033;-52
2024/04/03 08:48:56;;;;;;;6.97;1.75;;;11.50;99.90;;;;;;5052507;28;20477;-51
2024/04/03 08:51:27;;;;;;;1.27;1.15;;;11.60;99.90;;;;;;5052088;28;20100;-39
2024/04/03 08:54:05;;;;;;;2.10;1.50;;;11.60;99.90;;;;;;5052442;28;20025;-52
2024/04/03 08:56:31;;;;;;;1.65;1.55;;;11.80;99.90;;;;;;5052609;28;20462;-52
2024/04/03 08:58:59;;;;;;;3.20;1.60;;;11.80;99.90;;;;;;5051211;28;20017;-51
2024/04/03 09:01:25;;;;;;;3.38;1.65;;;11.90;99.90;;;;;;5040197;28;20029;-52
2024/04/03 09:03:50;;;;;;;2.55;2.10;;;11.90;99.90;;;;;;5032309;28;20406;-52
2024/04/03 09:06:16;;;;;;;2.03;1.83;;;12.00;99.90;;;;;;5038666;28;20064;-55
2024/04/03 09:08:43;;;;;;;2.30;1.80;;;12.00;99.90;;;;;;5052421;28;20029;-52
2024/04/03 09:11:10;;;;;;;4.65;1.63;;;12.10;99.90;;;;;;5048767;28;20044;-57
2024/04/03 09:13:35;;;;;;;5.18;1.92;;;12.10;99.90;;;;;;5052001;28;20013;-52
2024/04/03 09:16:01;;;;;;;2.78;1.83;;;12.20;99.90;;;;;;5052172;28;20032;-52
2024/04/03 09:18:27;;;;;;;2.13;1.92;;;12.20;99.90;;;;;;5051948;28;20508;-51
2024/04/03 09:20:53;;;;;;;2.05;1.95;;;12.20;99.90;;;;;;5052059;28;20025;-52
2024/04/03 09:23:19;;;;;;;2.92;2.17;;;12.30;99.90;;;;;;5051820;28;20096;-50
2024/04/03 09:25:45;;;;;;;4.00;1.65;;;12.30;99.90;;;;;;5052126;28;20044;-51
2024/04/03 09:28:12;;;;;;;5.85;1.83;;;12.30;99.90;;;;;;5050476;28;20021;-53
2024/04/03 09:30:47;;;;;;;4.25;1.75;;;12.40;99.90;;;;;;5052176;28;20021;-51
2024/04/03 09:33:13;;;;;;;3.58;2.15;;;12.50;99.90;;;;;;5051952;28;20021;-51
2024/04/03 09:35:40;;;;;;;5.72;1.98;;;12.60;99.90;;;;;;5050866;28;20029;-47
2024/04/03 09:38:06;;;;;;;4.75;1.88;;;12.60;99.90;;;;;;5052275;28;20032;-53
2024/04/03 09:40:34;;;;;;;3.13;2.10;;;12.70;99.90;;;;;;5051828;28;20419;-53
2024/04/03 09:43:09;;;;;;;2.55;1.92;;;12.80;99.90;;;;;;5051780;28;20028;-52
2024/04/03 09:45:34;;;;;;;3.60;2.50;;;12.90;99.90;;;;;;5033284;28;20493;-53
2024/04/03 09:48:09;;;;;;;4.93;2.55;;;12.90;99.90;;;;;;5048604;28;20025;-49
2024/04/03 09:50:42;;;;;;;8.55;2.28;;;12.90;99.90;;;;;;5051300;28;20099;-54
2024/04/03 09:53:15;;;;;;;2.47;2.25;;;12.90;99.90;;;;;;5055990;28;20397;-50
2024/04/03 09:55:46;;;;;;;3.30;2.10;;;12.80;99.90;;;;;;5055913;28;20021;-55
2024/04/03 09:58:17;;;;;;;2.75;2.42;;;12.90;99.90;;;;;;5055385;28;20029;-53
2024/04/03 10:00:54;;;;;;;6.65;2.78;;;13.00;99.90;;;;;;5055172;28;20025;-55
2024/04/03 10:03:34;;;;;;;4.65;2.28;;;13.00;99.90;;;;;;5056036;28;20429;-53
2024/04/03 10:06:10;;;;;;;4.10;3.05;;;13.10;99.90;;;;;;5055784;28;20029;-52
2024/04/03 10:08:45;;;;;;;3.95;2.85;;;13.10;99.90;;;;;;5054091;28;20025;-50
2024/04/03 10:11:13;;;;;;;11.32;2.40;;;13.20;99.90;;;;;;5055568;28;20028;-52
2024/04/03 10:13:40;;;;;;;3.80;2.13;;;13.30;99.90;;;;;;5054179;28;20265;-52
2024/04/03 10:16:06;;;;;;;2.28;2.00;;;13.40;99.90;;;;;;5052748;28;20091;-52
2024/04/03 10:18:39;;;;;;;2.75;2.55;;;13.50;99.90;;;;;;5049984;28;20116;-55
2024/04/03 10:21:12;;;;;;;8.90;2.85;;;13.50;99.90;;;;;;5036401;28;20108;-55
2024/04/03 10:23:43;;;;;;;2.08;1.98;;;13.50;99.90;;;;;;5037544;28;20051;-53
2024/04/03 10:26:11;;;;;;;2.53;2.33;;;13.40;99.90;;;;;;5055015;28;20537;-57
2024/04/03 10:28:38;;;;;;;5.93;3.20;;;13.30;99.90;;;;;;5055143;28;20021;-53
2024/04/03 10:31:03;;;;;;;3.28;2.60;;;13.20;99.90;;;;;;5055165;28;20026;-58
2024/04/03 10:33:29;;;;;;;4.20;2.80;;;13.20;99.90;;;;;;5054598;28;20053;-51
2024/04/03 10:35:56;;;;;;;4.88;2.80;;;13.30;99.90;;;;;;5054815;28;20457;-51
2024/04/03 10:38:22;;;;;;;3.13;2.80;;;13.40;99.90;;;;;;5055048;28;20086;-52
2024/04/03 10:40:47;;;;;;;2.92;2.70;;;13.50;99.90;;;;;;5054883;28;20477;-53
2024/04/03 10:43:14;;;;;;;7.30;2.85;;;13.40;99.90;;;;;;5054970;28;20017;-52
2024/04/03 10:45:39;;;;;;;6.85;3.03;;;13.50;99.90;;;;;;5054700;28;20052;-53
2024/04/03 10:48:11;;;;;;;3.50;2.58;;;13.50;99.90;;;;;;5058502;28;20456;-52
2024/04/03 10:50:40;;;;;;;4.15;2.53;;;13.40;99.90;;;;;;5059934;28;20488;-53
2024/04/03 10:53:09;;;;;;;2.95;2.75;;;13.40;99.90;;;;;;5074982;28;20081;-50
2024/04/03 10:55:36;;;;;;;6.60;2.42;;;13.30;99.90;;;;;;5063112;28;20482;-53
2024/04/03 10:58:03;;;;;;;3.17;2.10;;;13.40;99.90;;;;;;5054863;28;20029;-51
2024/04/03 11:00:33;;;;;;;5.55;2.95;;;13.40;99.90;;;;;;5053642;28;20033;-53
2024/04/03 11:02:59;;;;;;;2.83;2.08;;;13.40;99.90;;;;;;5054520;28;20033;-54
2024/04/03 11:05:27;;;;;;;2.80;2.28;;;13.30;99.90;;;;;;5054473;28;20013;-53
2024/04/03 11:07:52;;;;;;;3.92;2.30;;;13.30;99.90;;;;;;5058888;28;20033;-51
2024/04/03 11:10:20;;;;;;;1.92;1.75;;;13.20;99.90;;;;;;5054384;28;20048;-55
2024/04/03 11:12:47;;;;;;;5.88;1.77;;;13.20;99.90;;;;;;5054253;28;20024;-51
2024/04/03 11:15:13;;;;;;;2.95;2.55;;;13.10;99.90;;;;;;5054254;28;20021;-53
2024/04/03 11:17:39;;;;;;;5.93;2.00;;;13.10;99.90;;;;;;5054230;28;20017;-55
2024/04/03 11:20:06;;;;;;;2.78;1.85;;;13.10;99.90;;;;;;5043452;28;20025;-52
2024/04/03 11:22:32;;;;;;;8.60;1.85;;;13.10;99.90;;;;;;5054197;28;20031;-53
2024/04/03 11:25:00;;;;;;;5.13;1.90;;;13.10;99.90;;;;;;5053752;28;20053;-53
2024/04/03 11:27:26;;;;;;;;;;;13.00;99.90;;;;;;5053757;28;20029;-51
2024/04/03 11:29:52;;;;;;;7.65;2.22;;;13.00;99.90;;;;;;5053596;28;19958;-40
2024/04/03 11:32:17;;;;;;;2.70;2.40;;;13.00;99.90;;;;;;5053959;28;20033;-40
2024/04/03 11:34:43;;;;;;;3.83;2.25;;;13.10;99.90;;;;;;5053543;28;20025;-41
2024/04/03 11:37:09;;;;;;;3.50;2.75;;;13.30;99.90;;;;;;5053646;28;20084;-44
2024/04/03 11:39:35;;;;;;;2.85;1.90;;;13.40;99.90;;;;;;5053504;28;20038;-40
2024/04/03 11:42:03;;;;;;;2.63;1.95;;;13.40;99.90;;;;;;5052164;28;20028;-40
2024/04/03 11:44:29;;;;;;;4.10;1.70;;;13.40;99.90;;;;;;5053801;28;20086;-42
2024/04/03 11:46:54;;;;;;;2.00;1.90;;;13.30;99.90;;;;;;5053947;28;20119;-41
2024/04/03 11:49:20;;;;;;;1.55;1.45;;;13.20;99.90;;;;;;5053543;28;20025;-40
2024/04/03 11:51:49;;;;;;;1.70;1.60;;;13.00;99.90;;;;;;5053442;28;20035;-39
2024/04/03 11:54:15;;;;;;;2.17;1.80;;;12.90;99.90;;;;;;5053542;28;20417;-44
2024/04/03 11:56:40;;;;;;;2.65;2.22;;;12.80;99.90;;;;;;5053546;28;20025;-52
2024/04/03 11:59:09;;;;;;;4.40;2.00;;;12.80;99.90;;;;;;5053672;28;20021;-54
2024/04/03 12:01:36;;;;;;;1.50;1.40;;;12.90;99.90;;;;;;5052040;28;20082;-51
2024/04/03 12:04:02;;;;;;;3.53;2.08;;;12.90;99.90;;;;;;5053254;28;20063;-53
2024/04/03 12:06:29;;;;;;;1.95;1.73;;;12.90;99.90;;;;;;5053251;28;20017;-54
2024/04/03 12:08:54;;;;;;;1.88;1.77;;;12.90;99.90;;;;;;5051914;28;20485;-49
2024/04/03 12:11:20;;;;;;;7.82;1.90;;;12.90;99.90;;;;;;5052985;28;20035;-52
2024/04/03 12:13:46;;;;;;;5.72;2.67;;;13.00;99.90;;;;;;5053030;28;20029;-54
2024/04/03 12:16:13;;;;;;;2.20;2.03;;;13.00;99.90;;;;;;5052900;28;20420;-51
2024/04/03 12:18:49;;;;;;;4.82;2.80;;;13.10;99.90;;;;;;5053222;28;20021;-53
2024/04/03 12:21:18;;;;;;;3.58;2.45;;;13.10;99.90;;;;;;5053081;28;20419;-53
2024/04/03 12:23:46;;;;;;;3.80;2.35;;;13.10;99.90;;;;;;5052795;28;20438;-55
2024/04/03 12:26:13;;;;;;;2.97;2.40;;;13.20;99.90;;;;;;5051717;28;20488;-54
2024/04/03 12:28:39;;;;;;;4.72;2.63;;;13.20;99.90;;;;;;5053099;28;20033;-52
2024/04/03 12:31:06;;;;;;;2.40;2.10;;;13.40;99.90;;;;;;5053049;28;20446;-49
2024/04/03 12:33:32;;;;;;;3.63;2.13;;;13.50;99.90;;;;;;5052686;28;20029;-40
2024/04/03 12:35:58;;;;;;;3.35;2.47;;;13.50;99.90;;;;;;5052761;28;20501;-41
2024/04/03 12:38:27;;;;;;;3.42;2.45;;;13.60;99.90;;;;;;5052991;28;20020;-44
2024/04/03 12:40:53;;;;;;;3.58;2.63;;;13.60;99.90;;;;;;5052997;28;20370;-39
2024/04/03 12:43:19;;;;;;;4.03;2.40;;;13.60;99.90;;;;;;5052836;28;20107;-40
2024/04/03 12:45:50;;;;;;;3.22;2.90;;;13.70;99.90;;;;;;5052579;28;20021;-41